Time;durP1;ratioP1;P1;durP2;ratioP2;P2;SDS_P1;SDS_P2;PMS_P1;PMS_P2;Temp;Humidity;BMP_temperature;BMP_pressure;BME280_temperature;BME280_humidity;BME280_pressure;Samples;Min_cycle;Max_cycle;Signal;HPM_P1;HPM_P2
2023/01/12 00:01:07;;;;;;;0.30;0.30;;;7.00;99.90;;;;;;5004707;28;20146;-86
2023/01/12 00:03:33;;;;;;;0.60;0.60;;;7.00;99.90;;;;;;4973850;28;20042;-87
2023/01/12 00:06:00;;;;;;;0.63;0.63;;;7.10;99.90;;;;;;4966338;28;20035;-87
2023/01/12 00:08:25;;;;;;;1.15;1.15;;;7.10;99.90;;;;;;4975686;28;20045;-86
2023/01/12 00:10:55;;;;;;;0.50;0.50;;;7.10;99.90;;;;;;4970362;28;20734;-87
2023/01/12 00:13:21;;;;;;;0.60;0.60;;;7.10;99.90;;;;;;4989961;28;20050;-86
2023/01/12 00:18:34;;;;;;;0.60;0.60;;;7.20;99.90;;;;;;4976517;28;20043;-85
2023/01/12 00:20:59;;;;;;;0.50;0.50;;;7.30;99.90;;;;;;4978134;28;20039;-88
2023/01/12 00:23:26;;;;;;;0.50;0.50;;;7.20;99.90;;;;;;4958357;28;20039;-86
2023/01/12 00:25:53;;;;;;;0.80;0.80;;;7.40;99.90;;;;;;5002074;28;20088;-87
2023/01/12 00:28:19;;;;;;;0.95;0.93;;;7.50;99.90;;;;;;4975747;28;20121;-88
2023/01/12 00:30:45;;;;;;;0.50;0.50;;;7.40;99.90;;;;;;4995793;28;20086;-85
2023/01/12 00:33:12;;;;;;;0.50;0.50;;;7.30;99.90;;;;;;4967668;28;20480;-86
2023/01/12 00:35:37;;;;;;;0.35;0.35;;;7.50;99.90;;;;;;4972145;28;20066;-86
2023/01/12 00:38:05;;;;;;;8.75;1.17;;;7.50;99.90;;;;;;4964781;28;20034;-86
2023/01/12 00:40:31;;;;;;;1.08;1.00;;;7.50;99.90;;;;;;4978424;28;20388;-87
2023/01/12 00:45:42;;;;;;;0.60;0.60;;;7.50;99.90;;;;;;4977115;28;19932;-87
2023/01/12 00:48:11;;;;;;;0.60;0.60;;;7.50;99.90;;;;;;4975025;28;21047;-87
2023/01/12 00:50:37;;;;;;;0.50;0.50;;;7.50;99.90;;;;;;4991651;28;20092;-86
2023/01/12 00:53:03;;;;;;;0.63;0.63;;;7.50;99.90;;;;;;4989680;28;20042;-87
2023/01/12 00:55:29;;;;;;;0.40;0.40;;;7.50;99.90;;;;;;4991434;28;20052;-86
2023/01/12 00:57:55;;;;;;;0.60;0.60;;;7.50;99.90;;;;;;4972569;28;20053;-86
2023/01/12 01:00:22;;;;;;;0.70;0.70;;;7.50;99.90;;;;;;4982141;28;20043;-86
2023/01/12 01:02:47;;;;;;;1.20;1.10;;;7.60;99.90;;;;;;4984951;28;20477;-87
2023/01/12 01:05:13;;;;;;;0.57;0.57;;;7.60;99.90;;;;;;4991637;28;20089;-85
2023/01/12 01:07:39;;;;;;;3.00;1.15;;;7.60;99.90;;;;;;4997164;28;20034;-85
2023/01/12 01:10:05;;;;;;;0.40;0.40;;;7.60;99.90;;;;;;4998858;28;20042;-84
2023/01/12 01:12:31;;;;;;;;;;;7.60;99.90;;;;;;4992546;28;20043;-85
2023/01/12 01:14:57;;;;;;;0.57;0.57;;;7.60;99.90;;;;;;4987928;28;19922;-85
2023/01/12 01:17:22;;;;;;;0.60;0.60;;;7.70;99.90;;;;;;4998114;28;20049;-85
2023/01/12 01:19:48;;;;;;;0.40;0.40;;;7.70;99.90;;;;;;4975208;28;20042;-85
2023/01/12 01:22:14;;;;;;;0.50;0.50;;;7.80;99.90;;;;;;4975452;28;20054;-84
2023/01/12 01:24:40;;;;;;;0.75;0.75;;;7.80;99.90;;;;;;4991770;28;20129;-84
2023/01/12 01:27:06;;;;;;;;;;;7.80;99.90;;;;;;4994853;28;20038;-85
2023/01/12 01:29:31;;;;;;;0.60;0.60;;;7.70;99.90;;;;;;4977931;28;20282;-85
2023/01/12 01:31:57;;;;;;;0.60;0.60;;;7.70;99.90;;;;;;4989724;28;20096;-85
2023/01/12 01:34:23;;;;;;;0.50;0.50;;;7.70;99.90;;;;;;4981412;28;20034;-87
2023/01/12 01:36:49;;;;;;;0.50;0.50;;;7.70;99.90;;;;;;4976276;28;20054;-86
2023/01/12 01:39:14;;;;;;;0.75;0.75;;;7.70;99.90;;;;;;4986967;28;20062;-86
2023/01/12 01:41:40;;;;;;;0.55;0.55;;;7.60;99.90;;;;;;4989667;28;20061;-86
2023/01/12 01:44:28;;;;;;;1.00;0.95;;;7.60;99.90;;;;;;4996072;28;20042;-86
2023/01/12 01:47:02;;;;;;;0.50;0.50;;;7.70;99.90;;;;;;5010004;28;20058;-86
2023/01/12 01:49:38;;;;;;;0.60;0.60;;;7.70;99.90;;;;;;5010571;28;20046;-86
2023/01/12 01:52:15;;;;;;;0.50;0.50;;;7.70;99.90;;;;;;5005996;28;20038;-86
2023/01/12 01:54:46;;;;;;;0.50;0.50;;;7.70;99.90;;;;;;4984992;28;20496;-86
2023/01/12 01:57:14;;;;;;;0.57;0.57;;;7.70;99.90;;;;;;4991808;28;20047;-85
2023/01/12 01:59:44;;;;;;;0.60;0.60;;;7.60;99.90;;;;;;5001010;28;20395;-85
2023/01/12 02:02:10;;;;;;;0.50;0.50;;;7.60;99.90;;;;;;4987532;28;20046;-85
2023/01/12 02:04:36;;;;;;;0.50;0.50;;;7.60;99.90;;;;;;4993593;28;20042;-84
2023/01/12 02:07:05;;;;;;;0.47;0.47;;;7.70;99.90;;;;;;4978442;28;20050;-84
2023/01/12 02:09:31;;;;;;;2.25;2.15;;;7.60;99.90;;;;;;4990991;28;20038;-85
2023/01/12 02:17:48;;;;;;;0.40;0.40;;;7.60;99.90;;;;;;4990217;28;20443;-85
2023/01/12 02:20:17;;;;;;;0.40;0.40;;;7.60;99.90;;;;;;5006543;28;20085;-85
2023/01/12 02:22:58;;;;;;;0.60;0.60;;;7.60;99.90;;;;;;4989511;28;20038;-85
2023/01/12 02:25:36;;;;;;;0.50;0.50;;;7.60;99.90;;;;;;5001652;28;20125;-85
2023/01/12 02:28:15;;;;;;;0.50;0.50;;;7.60;99.90;;;;;;4997127;28;20054;-85
2023/01/12 02:31:00;;;;;;;0.52;0.52;;;7.60;99.90;;;;;;5004254;28;20444;-86
2023/01/12 02:33:41;;;;;;;0.50;0.50;;;7.80;99.90;;;;;;4972822;28;20496;-84
2023/01/12 02:36:13;;;;;;;0.50;0.50;;;7.80;99.90;;;;;;4990634;28;20054;-85
2023/01/12 02:39:01;;;;;;;0.40;0.40;;;7.90;99.90;;;;;;4987976;28;20042;-85
2023/01/12 02:45:00;;;;;;;0.43;0.43;;;7.90;99.90;;;;;;5007010;28;20054;-86
2023/01/12 02:47:49;;;;;;;0.43;0.43;;;7.90;99.90;;;;;;4995902;28;20096;-85
2023/01/12 02:50:42;;;;;;;0.60;0.60;;;7.90;99.90;;;;;;4992381;28;20054;-86
2023/01/12 02:53:43;;;;;;;0.40;0.40;;;7.90;99.90;;;;;;4989362;28;20061;-86
2023/01/12 02:56:12;;;;;;;0.57;0.57;;;7.90;99.90;;;;;;4991127;28;20050;-88
2023/01/12 02:58:47;;;;;;;0.50;0.50;;;7.90;99.90;;;;;;4988435;28;20488;-87
2023/01/12 03:01:15;;;;;;;1.30;0.98;;;7.80;99.90;;;;;;4997142;28;20378;-86
2023/01/12 03:03:41;;;;;;;0.60;0.60;;;7.80;99.90;;;;;;4974550;28;20598;-87
2023/01/12 03:06:07;;;;;;;0.50;0.50;;;7.80;99.90;;;;;;4968116;28;20045;-86
2023/01/12 03:08:38;;;;;;;0.30;0.30;;;7.80;99.90;;;;;;5004381;28;20117;-86
2023/01/12 03:11:13;;;;;;;1.13;1.13;;;7.90;99.90;;;;;;4979367;28;20824;-85
2023/01/12 03:13:53;;;;;;;0.50;0.50;;;7.80;99.90;;;;;;4993203;28;20048;-87
2023/01/12 03:16:24;;;;;;;1.35;1.35;;;7.80;99.90;;;;;;4994738;28;20054;-86
2023/01/12 03:18:55;;;;;;;0.60;0.60;;;7.80;99.90;;;;;;4989580;28;20042;-86
2023/01/12 03:21:43;;;;;;;0.52;0.52;;;7.80;99.90;;;;;;4973998;28;20042;-87
2023/01/12 03:24:12;;;;;;;0.47;0.47;;;7.80;99.90;;;;;;4994160;28;20042;-87
2023/01/12 03:26:42;;;;;;;0.70;0.70;;;7.90;99.90;;;;;;4996240;28;20040;-86
2023/01/12 03:29:19;;;;;;;0.50;0.50;;;7.90;99.90;;;;;;4969095;28;20124;-86
2023/01/12 03:31:44;;;;;;;3.35;2.05;;;7.90;99.90;;;;;;4996268;28;20046;-88
2023/01/12 03:34:10;;;;;;;0.40;0.40;;;8.00;99.90;;;;;;4995191;28;20046;-86
2023/01/12 03:36:36;;;;;;;0.55;0.55;;;7.90;99.90;;;;;;4993556;28;20444;-84
2023/01/12 03:39:17;;;;;;;0.50;0.50;;;8.00;99.90;;;;;;4986423;28;20459;-84
2023/01/12 03:42:02;;;;;;;0.50;0.50;;;8.00;99.90;;;;;;4997464;28;20120;-82
2023/01/12 03:44:53;;;;;;;0.50;0.50;;;8.00;99.90;;;;;;5003297;28;20125;-85
2023/01/12 03:47:27;;;;;;;0.40;0.40;;;8.00;99.90;;;;;;4991723;28;20782;-84
2023/01/12 03:49:58;;;;;;;0.40;0.40;;;8.00;99.90;;;;;;4991283;28;20061;-83
2023/01/12 03:52:25;;;;;;;0.60;0.60;;;8.00;99.90;;;;;;4975568;28;20046;-87
2023/01/12 03:54:55;;;;;;;0.40;0.40;;;8.00;99.90;;;;;;4969270;28;20053;-84
2023/01/12 03:57:22;;;;;;;0.55;0.55;;;8.00;99.90;;;;;;5007990;28;20042;-85
2023/01/12 03:59:48;;;;;;;0.50;0.50;;;8.00;99.90;;;;;;4988128;28;20038;-86
2023/01/12 04:02:13;;;;;;;0.40;0.40;;;8.00;99.90;;;;;;4971028;28;20065;-86
2023/01/12 04:04:39;;;;;;;0.43;0.43;;;8.10;99.90;;;;;;4978647;28;20034;-88
2023/01/12 04:07:05;;;;;;;0.50;0.50;;;8.10;99.90;;;;;;4981949;28;20046;-85
2023/01/12 04:09:31;;;;;;;0.50;0.50;;;8.20;99.90;;;;;;4985313;28;20038;-86
2023/01/12 04:12:12;;;;;;;0.50;0.50;;;8.30;99.90;;;;;;4972966;28;20100;-86
2023/01/12 04:14:39;;;;;;;0.45;0.45;;;8.20;99.90;;;;;;4973650;28;20045;-85
2023/01/12 04:17:07;;;;;;;0.40;0.40;;;8.30;99.90;;;;;;4987471;28;20047;-88
2023/01/12 04:19:32;;;;;;;0.50;0.50;;;8.20;99.90;;;;;;5007083;28;20413;-84
2023/01/12 04:24:43;;;;;;;3.08;2.80;;;8.20;99.90;;;;;;4991340;28;20053;-86
2023/01/12 04:27:08;;;;;;;1.40;1.10;;;8.30;99.90;;;;;;5006152;28;20047;-87
2023/01/12 04:29:34;;;;;;;0.57;0.57;;;8.20;99.90;;;;;;5007676;28;20049;-86
2023/01/12 04:32:00;;;;;;;0.60;0.60;;;8.30;99.90;;;;;;4984167;28;20046;-88
2023/01/12 04:34:26;;;;;;;0.50;0.50;;;8.30;99.90;;;;;;4985857;28;20089;-87
2023/01/12 04:36:52;;;;;;;0.40;0.40;;;8.20;99.90;;;;;;4994617;28;20042;-88
2023/01/12 04:39:17;;;;;;;0.73;0.73;;;8.20;99.90;;;;;;4984878;28;20492;-84
2023/01/12 04:41:43;;;;;;;0.50;0.50;;;8.20;99.90;;;;;;5001296;28;20074;-87
2023/01/12 04:44:09;;;;;;;0.60;0.60;;;8.20;99.90;;;;;;4991183;28;20098;-85
2023/01/12 04:46:34;;;;;;;0.40;0.40;;;8.20;99.90;;;;;;4995857;28;20053;-88
2023/01/12 04:49:00;;;;;;;0.60;0.60;;;8.30;99.90;;;;;;4984154;28;20057;-87
2023/01/12 04:51:26;;;;;;;1.63;1.55;;;8.20;99.90;;;;;;4988890;28;20046;-85
2023/01/12 04:53:52;;;;;;;0.57;0.57;;;8.20;99.90;;;;;;4999723;28;20070;-88
2023/01/12 04:56:18;;;;;;;2.60;2.40;;;8.10;99.90;;;;;;4983377;28;20058;-85
2023/01/12 04:58:44;;;;;;;;;;;8.10;99.90;;;;;;4994956;28;20045;-87
2023/01/12 05:01:16;;;;;;;0.50;0.50;;;8.00;99.90;;;;;;4989840;28;19918;-85
2023/01/12 05:03:43;;;;;;;0.52;0.52;;;8.00;99.90;;;;;;4982841;28;20034;-91
2023/01/12 05:06:08;;;;;;;0.40;0.40;;;8.00;99.90;;;;;;4972588;28;20034;-87
2023/01/12 05:11:20;;;;;;;0.45;0.45;;;7.90;99.90;;;;;;5002008;28;20096;-89
2023/01/12 05:13:46;;;;;;;0.40;0.40;;;7.90;99.90;;;;;;4987492;28;20081;-87
2023/01/12 05:16:17;;;;;;;0.88;0.88;;;7.90;99.90;;;;;;4990428;28;20034;-85
2023/01/12 05:18:44;;;;;;;1.48;1.38;;;7.90;99.90;;;;;;4988766;28;20050;-86
2023/01/12 05:21:11;;;;;;;0.50;0.50;;;7.90;99.90;;;;;;5011382;28;20042;-84
2023/01/12 05:23:37;;;;;;;0.57;0.57;;;7.90;99.90;;;;;;4989778;28;20046;-87
2023/01/12 05:26:04;;;;;;;0.40;0.40;;;7.90;99.90;;;;;;4989193;28;20057;-88
2023/01/12 05:28:32;;;;;;;0.50;0.50;;;8.00;99.90;;;;;;5003423;28;20175;-86
2023/01/12 05:31:04;;;;;;;0.40;0.40;;;8.00;99.90;;;;;;4966414;28;20039;-87
2023/01/12 05:33:30;;;;;;;0.40;0.40;;;7.90;99.90;;;;;;4987786;28;20068;-87
2023/01/12 05:35:56;;;;;;;0.70;0.70;;;7.90;99.90;;;;;;4991389;28;20484;-86
2023/01/12 05:38:22;;;;;;;0.50;0.50;;;7.90;99.90;;;;;;4989046;28;20047;-84
2023/01/12 05:40:48;;;;;;;0.43;0.43;;;7.90;99.90;;;;;;4987901;28;20026;-85
2023/01/12 05:46:05;;;;;;;0.60;0.60;;;7.90;99.90;;;;;;4990760;28;20528;-87
2023/01/12 05:48:31;;;;;;;0.40;0.40;;;7.90;99.90;;;;;;4993334;28;20114;-90
2023/01/12 05:51:04;;;;;;;0.47;0.47;;;7.90;99.90;;;;;;4978228;28;20556;-89
2023/01/12 05:53:30;;;;;;;0.50;0.50;;;7.90;99.90;;;;;;5000516;28;20038;-90
2023/01/12 05:55:57;;;;;;;0.52;0.52;;;7.90;99.90;;;;;;4987724;28;20049;-87
2023/01/12 05:58:23;;;;;;;0.40;0.40;;;7.90;99.90;;;;;;4987889;28;20050;-90
2023/01/12 06:00:49;;;;;;;0.30;0.30;;;7.80;99.90;;;;;;4986419;28;20030;-89
2023/01/12 06:03:15;;;;;;;0.50;0.50;;;7.90;99.90;;;;;;4983655;28;20042;-84
2023/01/12 06:05:42;;;;;;;;;;;7.90;99.90;;;;;;4992089;28;20046;-85
2023/01/12 06:08:08;;;;;;;0.55;0.55;;;7.90;99.90;;;;;;5003886;28;19922;-85
2023/01/12 06:10:35;;;;;;;0.50;0.50;;;8.00;99.90;;;;;;4961037;28;20109;-85
2023/01/12 06:15:46;;;;;;;0.75;0.75;;;7.90;99.90;;;;;;4987462;28;21586;-86
2023/01/12 06:18:11;;;;;;;0.43;0.43;;;8.00;99.90;;;;;;4991380;28;20054;-87
2023/01/12 06:20:37;;;;;;;0.50;0.50;;;8.00;99.90;;;;;;4973369;28;20046;-87
2023/01/12 06:23:03;;;;;;;0.50;0.50;;;8.00;99.90;;;;;;4988045;28;20136;-86
2023/01/12 06:25:30;;;;;;;0.30;0.30;;;8.00;99.90;;;;;;4993749;28;20076;-86
2023/01/12 06:27:56;;;;;;;0.60;0.60;;;8.10;99.90;;;;;;4997885;28;20664;-86
2023/01/12 06:30:22;;;;;;;0.60;0.60;;;8.10;99.90;;;;;;4985604;28;20128;-88
2023/01/12 06:32:48;;;;;;;0.50;0.50;;;8.10;99.90;;;;;;4996702;28;20072;-85
2023/01/12 06:35:14;;;;;;;0.52;0.52;;;8.10;99.90;;;;;;4982134;28;20074;-87
2023/01/12 06:37:40;;;;;;;0.38;0.38;;;8.20;99.90;;;;;;4989764;28;20061;-84
2023/01/12 06:40:08;;;;;;;1.13;1.13;;;8.20;99.90;;;;;;4977223;28;20051;-86
2023/01/12 06:42:39;;;;;;;0.50;0.50;;;8.20;99.90;;;;;;4992842;28;20197;-89
2023/01/12 06:45:05;;;;;;;0.50;0.50;;;8.40;99.90;;;;;;4994672;28;20101;-88
2023/01/12 06:47:31;;;;;;;0.50;0.50;;;8.30;99.90;;;;;;5000337;28;20103;-87
2023/01/12 06:49:57;;;;;;;0.40;0.40;;;8.30;99.90;;;;;;4976208;28;20038;-88
2023/01/12 06:52:25;;;;;;;0.60;0.60;;;8.40;99.90;;;;;;4992094;28;20045;-87
2023/01/12 06:54:50;;;;;;;0.60;0.60;;;8.40;99.90;;;;;;5001664;28;20034;-88
2023/01/12 06:57:16;;;;;;;0.60;0.60;;;8.50;99.90;;;;;;4994580;28;20062;-87
2023/01/12 06:59:42;;;;;;;0.52;0.52;;;8.50;99.90;;;;;;4993661;28;20049;-84
2023/01/12 07:02:13;;;;;;;0.50;0.50;;;8.80;99.90;;;;;;4995813;28;20125;-87
2023/01/12 07:04:40;;;;;;;0.38;0.38;;;8.50;99.90;;;;;;4995063;28;20053;-86
2023/01/12 07:07:08;;;;;;;0.60;0.60;;;8.60;99.90;;;;;;4992798;28;20054;-86
2023/01/12 07:09:35;;;;;;;0.40;0.40;;;8.70;99.90;;;;;;4992671;28;20137;-86
2023/01/12 07:12:02;;;;;;;0.60;0.60;;;8.80;99.90;;;;;;4989703;28;20126;-87
2023/01/12 07:14:28;;;;;;;0.40;0.40;;;8.90;99.90;;;;;;4987858;28;20049;-87
2023/01/12 07:16:54;;;;;;;0.45;0.45;;;8.90;99.90;;;;;;4991970;28;20093;-85
2023/01/12 07:19:20;;;;;;;0.50;0.50;;;9.00;99.90;;;;;;4990923;28;20038;-86
2023/01/12 07:21:47;;;;;;;0.50;0.50;;;9.20;99.90;;;;;;5001517;28;20100;-86
2023/01/12 07:24:13;;;;;;;0.40;0.40;;;9.20;99.90;;;;;;4993690;28;20041;-87
2023/01/12 07:26:39;;;;;;;0.40;0.40;;;9.20;99.90;;;;;;4980663;28;20038;-88
2023/01/12 07:29:04;;;;;;;0.50;0.50;;;9.30;99.90;;;;;;4992318;28;20129;-85
2023/01/12 07:31:30;;;;;;;0.50;0.50;;;9.40;99.90;;;;;;4978715;28;20038;-90
2023/01/12 07:33:56;;;;;;;0.40;0.40;;;9.20;99.90;;;;;;4958588;28;20046;-89
2023/01/12 07:36:22;;;;;;;0.50;0.50;;;9.40;99.90;;;;;;4998605;28;20056;-86
2023/01/12 07:38:47;;;;;;;;;;;9.30;99.90;;;;;;5000259;28;20058;-86
2023/01/12 07:43:58;;;;;;;0.40;0.40;;;9.50;99.90;;;;;;4982107;28;20082;-88
2023/01/12 07:46:24;;;;;;;0.40;0.40;;;9.50;99.90;;;;;;4977615;28;20066;-85
2023/01/12 07:48:51;;;;;;;0.40;0.40;;;9.60;99.90;;;;;;5005561;28;20038;-82
2023/01/12 07:51:17;;;;;;;0.80;0.80;;;9.60;99.90;;;;;;5007133;28;20111;-84
2023/01/12 07:53:43;;;;;;;0.40;0.40;;;9.60;99.90;;;;;;4986946;28;20034;-86
2023/01/12 07:56:12;;;;;;;0.50;0.50;;;9.70;99.90;;;;;;4980767;28;20128;-87
2023/01/12 07:58:38;;;;;;;0.52;0.52;;;9.70;99.90;;;;;;4999549;28;20046;-85
2023/01/12 08:01:03;;;;;;;0.30;0.30;;;9.70;99.90;;;;;;5000880;28;20085;-86
2023/01/12 08:03:29;;;;;;;0.40;0.40;;;9.70;99.90;;;;;;4982926;28;20105;-85
2023/01/12 08:05:56;;;;;;;0.40;0.40;;;9.80;99.90;;;;;;4994387;28;20049;-84
2023/01/12 08:08:21;;;;;;;0.30;0.30;;;9.80;99.90;;;;;;4978734;28;20046;-85
2023/01/12 08:10:49;;;;;;;0.40;0.40;;;9.90;99.90;;;;;;4982624;28;20096;-85
2023/01/12 08:13:15;;;;;;;0.38;0.38;;;9.90;99.90;;;;;;4998569;28;20439;-85
2023/01/12 08:15:46;;;;;;;0.50;0.50;;;10.00;99.90;;;;;;4993364;28;20042;-84
2023/01/12 08:18:35;;;;;;;0.47;0.47;;;10.00;99.90;;;;;;4983008;28;20038;-85
2023/01/12 08:21:06;;;;;;;0.35;0.35;;;10.10;99.90;;;;;;5002153;28;20051;-86
2023/01/12 08:23:38;;;;;;;0.50;0.50;;;10.10;99.90;;;;;;4994509;28;20052;-86
2023/01/12 08:26:09;;;;;;;0.40;0.40;;;10.10;99.90;;;;;;4990122;28;20373;-86
2023/01/12 08:29:02;;;;;;;0.40;0.40;;;10.10;99.90;;;;;;4993561;28;20061;-88
2023/01/12 08:31:30;;;;;;;0.63;0.63;;;10.20;99.90;;;;;;5009757;28;20599;-86
2023/01/12 08:33:56;;;;;;;0.50;0.50;;;10.20;99.90;;;;;;4990280;28;20443;-88
2023/01/12 08:36:23;;;;;;;0.40;0.40;;;10.30;99.90;;;;;;4977585;28;20045;-89
2023/01/12 08:38:49;;;;;;;0.38;0.38;;;10.30;99.90;;;;;;5000390;28;20053;-85
2023/01/12 08:41:32;;;;;;;0.40;0.40;;;10.30;99.90;;;;;;5000636;28;20068;-88
2023/01/12 08:44:06;;;;;;;0.32;0.32;;;10.30;99.90;;;;;;4978086;28;20073;-87
2023/01/12 08:46:39;;;;;;;0.40;0.40;;;10.30;99.90;;;;;;4996050;28;20058;-88
2023/01/12 08:49:10;;;;;;;0.28;0.28;;;10.30;99.90;;;;;;4976302;28;20519;-88
2023/01/12 08:51:38;;;;;;;0.32;0.32;;;10.30;99.90;;;;;;4997726;28;20042;-86
2023/01/12 08:54:04;;;;;;;0.40;0.40;;;9.80;99.90;;;;;;4979919;28;20057;-89
2023/01/12 08:56:30;;;;;;;0.32;0.32;;;10.40;99.90;;;;;;4992159;28;20476;-86
2023/01/12 08:58:56;;;;;;;0.45;0.45;;;10.40;99.90;;;;;;5000843;28;20038;-88
2023/01/12 09:01:22;;;;;;;0.40;0.40;;;10.50;99.90;;;;;;4995313;28;20046;-88
2023/01/12 09:03:48;;;;;;;0.40;0.40;;;10.50;99.90;;;;;;4995139;28;20093;-87
2023/01/12 09:06:23;;;;;;;0.30;0.30;;;10.40;99.90;;;;;;4991154;28;20046;-87
2023/01/12 09:08:53;;;;;;;0.40;0.40;;;10.40;99.90;;;;;;5008901;28;20041;-87
2023/01/12 09:11:19;;;;;;;0.40;0.40;;;10.40;99.90;;;;;;4992878;28;20031;-88
2023/01/12 09:13:45;;;;;;;0.30;0.30;;;10.40;99.90;;;;;;4988509;28;20125;-88
2023/01/12 09:16:13;;;;;;;0.30;0.30;;;10.40;99.90;;;;;;5009829;28;20050;-88
2023/01/12 09:18:51;;;;;;;0.32;0.32;;;10.40;99.90;;;;;;4996013;28;20081;-89
2023/01/12 09:21:22;;;;;;;0.75;0.75;;;10.40;99.90;;;;;;4980771;28;20045;-87
2023/01/12 09:23:49;;;;;;;0.50;0.50;;;10.40;99.90;;;;;;5002450;28;20042;-89
2023/01/12 09:26:20;;;;;;;0.30;0.30;;;10.40;99.90;;;;;;4988843;28;20042;-90
2023/01/12 09:28:47;;;;;;;0.30;0.30;;;10.40;99.90;;;;;;4986644;28;20064;-89
2023/01/12 09:31:21;;;;;;;0.40;0.40;;;10.40;99.90;;;;;;4974440;28;20112;-88
2023/01/12 09:33:48;;;;;;;0.30;0.30;;;10.40;99.90;;;;;;5007518;28;20674;-88
2023/01/12 09:36:16;;;;;;;0.32;0.32;;;10.40;99.90;;;;;;4992598;28;20755;-88
2023/01/12 09:38:44;;;;;;;0.32;0.32;;;10.40;99.90;;;;;;4989900;28;20054;-88
2023/01/12 09:47:21;;;;;;;0.40;0.40;;;10.30;99.90;;;;;;5010399;28;20050;-86
2023/01/12 09:50:12;;;;;;;0.40;0.40;;;10.30;99.90;;;;;;4994293;28;20048;-88
2023/01/12 09:52:54;;;;;;;0.47;0.47;;;10.30;99.90;;;;;;5003288;28;20041;-90
2023/01/12 09:55:23;;;;;;;0.40;0.40;;;10.30;99.90;;;;;;4995259;28;20042;-88
2023/01/12 09:58:07;;;;;;;0.52;0.52;;;10.40;99.90;;;;;;4999648;28;20480;-90
2023/01/12 10:00:33;;;;;;;0.38;0.38;;;10.40;99.90;;;;;;4994361;28;20042;-85
2023/01/12 10:03:05;;;;;;;0.40;0.40;;;10.40;99.90;;;;;;4987839;28;20047;-87
2023/01/12 10:05:45;;;;;;;0.30;0.30;;;10.40;99.90;;;;;;4999949;28;20049;-87
2023/01/12 10:08:21;;;;;;;0.32;0.32;;;10.40;99.90;;;;;;4978133;28;20054;-85
2023/01/12 10:11:00;;;;;;;0.40;0.40;;;10.30;99.90;;;;;;4994953;28;20034;-86
2023/01/12 10:13:37;;;;;;;0.30;0.30;;;10.30;99.90;;;;;;4998533;28;20121;-88
2023/01/12 10:16:12;;;;;;;0.40;0.40;;;10.20;99.90;;;;;;4994243;28;20073;-88
2023/01/12 10:18:42;;;;;;;0.40;0.40;;;10.20;99.90;;;;;;5017401;28;20029;-88
2023/01/12 10:21:09;;;;;;;0.40;0.40;;;10.20;99.90;;;;;;5003158;28;20548;-88
2023/01/12 10:23:35;;;;;;;0.40;0.40;;;10.20;99.90;;;;;;4997850;28;20378;-87
2023/01/12 10:26:08;;;;;;;;;;;10.20;99.90;;;;;;4988001;28;20050;-88
2023/01/12 10:28:35;;;;;;;0.40;0.40;;;10.20;99.90;;;;;;4994848;28;19921;-88
2023/01/12 10:31:02;;;;;;;0.30;0.30;;;10.30;99.90;;;;;;4978474;28;20033;-87
2023/01/12 10:33:33;;;;;;;0.40;0.40;;;10.30;99.90;;;;;;4993382;28;20046;-89
2023/01/12 10:36:18;;;;;;;0.30;0.30;;;10.30;99.90;;;;;;4992384;28;20125;-85
2023/01/12 10:39:03;;;;;;;0.40;0.40;;;10.20;99.90;;;;;;4993584;28;20060;-84
2023/01/12 10:41:33;;;;;;;0.40;0.40;;;10.20;99.90;;;;;;4989029;28;20038;-85
2023/01/12 10:43:59;;;;;;;0.40;0.40;;;10.10;99.90;;;;;;4977279;28;20043;-87
2023/01/12 10:46:33;;;;;;;0.40;0.40;;;10.10;99.90;;;;;;4993261;28;20042;-85
2023/01/12 10:49:20;;;;;;;0.45;0.45;;;10.00;99.90;;;;;;4999375;28;20034;-87
2023/01/12 10:51:55;;;;;;;0.60;0.60;;;10.00;99.90;;;;;;5009155;28;20039;-86
2023/01/12 10:54:34;;;;;;;0.40;0.40;;;10.10;99.90;;;;;;4991270;28;20479;-86
2023/01/12 10:57:22;;;;;;;0.30;0.30;;;10.10;99.90;;;;;;4990977;28;20042;-87
2023/01/12 10:59:55;;;;;;;;;;;10.10;99.90;;;;;;4980880;28;20380;-84
2023/01/12 11:02:22;;;;;;;0.50;0.50;;;10.20;99.90;;;;;;4996562;28;19940;-84
2023/01/12 11:04:53;;;;;;;0.40;0.40;;;10.20;99.90;;;;;;4960309;28;20058;-86
2023/01/12 11:07:25;;;;;;;0.40;0.40;;;10.20;99.90;;;;;;4978335;28;20071;-86
2023/01/12 11:09:53;;;;;;;0.35;0.35;;;10.20;99.90;;;;;;4992196;28;20094;-84
2023/01/12 11:12:35;;;;;;;0.30;0.30;;;10.20;99.90;;;;;;4983582;28;20042;-85
2023/01/12 11:15:01;;;;;;;0.40;0.40;;;10.20;99.90;;;;;;4989855;28;20043;-84
2023/01/12 11:17:56;;;;;;;0.40;0.40;;;10.20;99.90;;;;;;4996904;28;20037;-84
2023/01/12 11:20:43;;;;;;;0.47;0.47;;;10.20;99.90;;;;;;4991398;28;20050;-87
2023/01/12 11:23:26;;;;;;;0.40;0.40;;;10.30;99.90;;;;;;4993485;28;20086;-88
2023/01/12 11:25:52;;;;;;;0.50;0.50;;;10.30;99.90;;;;;;4979413;28;20034;-87
2023/01/12 11:28:29;;;;;;;0.50;0.50;;;10.30;99.90;;;;;;4980566;28;20046;-87
2023/01/12 11:30:57;;;;;;;0.30;0.30;;;10.30;99.90;;;;;;4985096;28;20110;-86
2023/01/12 11:33:33;;;;;;;0.30;0.30;;;10.40;99.90;;;;;;4993867;28;20553;-85
2023/01/12 11:36:08;;;;;;;0.30;0.30;;;10.40;99.90;;;;;;4990144;28;20070;-85
2023/01/12 11:38:41;;;;;;;0.38;0.38;;;10.40;99.90;;;;;;5006046;28;20093;-87
2023/01/12 11:41:16;;;;;;;0.47;0.47;;;10.40;99.90;;;;;;4991047;28;20046;-84
2023/01/12 11:44:06;;;;;;;0.30;0.30;;;10.50;99.90;;;;;;5009412;28;20065;-89
2023/01/12 11:46:55;;;;;;;0.30;0.30;;;10.50;99.90;;;;;;4977847;28;20047;-87
2023/01/12 11:49:40;;;;;;;0.30;0.30;;;10.50;99.90;;;;;;4979394;28;20066;-84
2023/01/12 11:52:10;;;;;;;0.40;0.40;;;10.50;99.90;;;;;;4988613;28;20042;-87
2023/01/12 11:54:38;;;;;;;0.40;0.40;;;10.50;99.90;;;;;;4978348;28;20038;-85
2023/01/12 11:57:15;;;;;;;0.32;0.32;;;10.60;99.90;;;;;;4995563;28;20050;-84
2023/01/12 11:59:56;;;;;;;0.40;0.40;;;10.60;99.90;;;;;;4990076;28;20138;-85
2023/01/12 12:02:40;;;;;;;0.47;0.47;;;10.60;99.90;;;;;;4980333;28;20153;-86
2023/01/12 12:05:08;;;;;;;0.40;0.40;;;10.60;99.90;;;;;;4994857;28;20416;-84
2023/01/12 12:08:26;;;;;;;0.30;0.30;;;10.60;99.90;;;;;;4995071;28;20500;-85
2023/01/12 12:11:13;;;;;;;0.40;0.40;;;10.60;99.90;;;;;;4986224;28;20376;-84
2023/01/12 12:13:51;;;;;;;;;;;10.70;99.90;;;;;;5014406;28;20441;-85
2023/01/12 12:16:47;;;;;;;0.50;0.50;;;10.70;99.90;;;;;;4990836;28;19917;-85
2023/01/12 12:19:50;;;;;;;0.30;0.30;;;10.80;99.90;;;;;;4993904;28;20050;-83
2023/01/12 12:22:48;;;;;;;0.40;0.40;;;10.70;99.90;;;;;;4988350;28;20062;-86
2023/01/12 12:25:34;;;;;;;;;;;10.70;99.90;;;;;;4997456;28;20054;-83
2023/01/12 12:28:05;;;;;;;0.40;0.40;;;10.70;99.90;;;;;;4974140;28;19922;-86
2023/01/12 12:30:40;;;;;;;0.38;0.38;;;10.70;99.90;;;;;;4998123;28;20050;-85
2023/01/12 12:33:06;;;;;;;0.30;0.30;;;10.70;99.90;;;;;;4994440;28;20042;-86
2023/01/12 12:35:40;;;;;;;0.40;0.40;;;10.70;99.90;;;;;;4988485;28;20046;-84
2023/01/12 12:38:06;;;;;;;0.35;0.35;;;10.80;99.90;;;;;;5001063;28;20054;-84
2023/01/12 12:46:45;;;;;;;0.30;0.30;;;10.70;99.90;;;;;;5020124;28;20046;-84
2023/01/12 12:49:14;;;;;;;0.35;0.35;;;10.60;99.90;;;;;;5000176;28;20546;-85
2023/01/12 12:51:42;;;;;;;0.30;0.30;;;10.60;99.90;;;;;;5001183;28;20077;-86
2023/01/12 12:54:16;;;;;;;0.45;0.45;;;10.50;99.90;;;;;;4997810;28;20038;-87
2023/01/12 12:56:42;;;;;;;0.30;0.30;;;10.50;99.90;;;;;;4996358;28;20038;-86
2023/01/12 12:59:47;;;;;;;0.30;0.30;;;10.40;99.90;;;;;;4976239;28;20043;-84
2023/01/12 13:02:37;;;;;;;0.30;0.30;;;10.40;99.90;;;;;;5012561;28;20046;-87
2023/01/12 13:05:05;;;;;;;0.30;0.30;;;10.40;99.90;;;;;;4973985;28;20042;-87
2023/01/12 13:07:35;;;;;;;0.50;0.50;;;10.40;99.90;;;;;;4970382;28;20049;-86
2023/01/12 13:10:26;;;;;;;0.30;0.30;;;10.50;99.90;;;;;;4991440;28;20113;-86
2023/01/12 13:13:01;;;;;;;0.40;0.40;;;10.50;99.90;;;;;;4976947;28;20109;-84
2023/01/12 13:15:35;;;;;;;0.40;0.40;;;10.50;99.90;;;;;;4997118;28;20081;-83
2023/01/12 13:18:02;;;;;;;0.40;0.40;;;10.50;99.90;;;;;;4995476;28;20097;-84
2023/01/12 13:21:01;;;;;;;0.30;0.30;;;10.50;99.90;;;;;;5001806;28;20076;-84
2023/01/12 13:23:44;;;;;;;0.35;0.35;;;10.50;99.90;;;;;;4982370;28;20089;-84
2023/01/12 13:26:25;;;;;;;0.30;0.30;;;10.50;99.90;;;;;;4985824;28;20133;-84
2023/01/12 13:29:22;;;;;;;0.30;0.30;;;10.60;99.90;;;;;;4993337;28;20400;-85
2023/01/12 13:31:49;;;;;;;0.50;0.50;;;10.50;99.90;;;;;;5005565;28;20120;-84
2023/01/12 13:34:30;;;;;;;0.30;0.30;;;10.60;99.90;;;;;;4987089;28;20042;-87
2023/01/12 13:37:18;;;;;;;0.40;0.40;;;10.50;99.90;;;;;;4990791;28;20492;-84
2023/01/12 13:40:21;;;;;;;0.35;0.35;;;10.50;99.90;;;;;;4987623;28;20051;-85
2023/01/12 13:45:35;;;;;;;0.45;0.45;;;10.60;99.90;;;;;;4987409;28;20058;-85
2023/01/12 13:48:04;;;;;;;0.40;0.40;;;10.60;99.90;;;;;;4987465;28;20046;-85
2023/01/12 13:50:30;;;;;;;0.30;0.30;;;10.60;99.90;;;;;;5004257;28;20038;-84
2023/01/12 13:52:58;;;;;;;0.40;0.40;;;10.60;99.90;;;;;;4972590;28;20114;-86
2023/01/12 13:55:29;;;;;;;0.30;0.30;;;10.60;99.90;;;;;;4974360;28;20046;-85
2023/01/12 13:58:04;;;;;;;0.30;0.30;;;10.60;99.90;;;;;;4993639;28;20055;-85
2023/01/12 14:00:32;;;;;;;0.40;0.40;;;10.60;99.90;;;;;;4978121;28;20455;-83